Time;durP1;ratioP1;P1;durP2;ratioP2;P2;SDS_P1;SDS_P2;PMS_P1;PMS_P2;Temp;Humidity;BMP_temperature;BMP_pressure;BME280_temperature;BME280_humidity;BME280_pressure;Samples;Min_cycle;Max_cycle;Signal;HPM_P1;HPM_P2
2023/01/24 00:05:40;;;;;;;19.73;11.20;;;;;;;2.26;98.04;103636.09;5036252;28;20053;-91
2023/01/24 00:08:08;;;;;;;20.85;10.95;;;;;;;2.23;97.52;103634.47;5037815;28;20037;-91
2023/01/24 00:11:34;;;;;;;;;;;;;;;;;;;;;
2023/01/24 00:18:04;;;;;;;20.48;10.80;;;;;;;2.26;97.83;103630.75;4995440;28;20042;-91
2023/01/24 00:37:52;;;;;;;18.55;10.48;;;;;;;2.27;97.08;103622.63;4934106;29;20435;-91
2023/01/24 00:40:17;;;;;;;20.25;10.07;;;;;;;2.23;96.75;103610.34;4968728;28;20077;-91
2023/01/24 00:42:49;;;;;;;21.10;10.57;;;;;;;2.24;97.28;103613.88;4994138;28;20038;-91
2023/01/24 00:45:21;;;;;;;18.55;9.85;;;;;;;2.27;97.45;103619.94;5004249;28;20040;-91
2023/01/24 00:47:49;;;;;;;18.27;10.05;;;;;;;2.22;97.62;103608.63;4986882;28;20030;-91
2023/01/24 00:50:30;;;;;;;19.00;10.25;;;;;;;2.25;97.20;103613.78;5001161;28;20470;-90
2023/01/24 00:52:55;;;;;;;20.73;11.07;;;;;;;2.20;97.30;103606.97;5002630;28;20458;-91
2023/01/24 00:55:32;;;;;;;21.20;10.48;;;;;;;2.19;97.17;103611.50;5034730;28;20030;-91
2023/01/24 00:58:07;;;;;;;21.15;10.43;;;;;;;2.17;96.88;103616.09;5017093;28;20025;-90
2023/01/24 01:07:24;;;;;;;23.20;11.15;;;;;;;2.14;97.50;103610.91;4935507;28;20051;-90
2023/01/24 01:13:23;;;;;;;21.30;10.32;;;;;;;2.17;97.32;103601.81;5034988;28;20496;-90
2023/01/24 01:15:51;;;;;;;19.53;9.80;;;;;;;2.19;96.84;103610.63;5016719;28;20029;-91
2023/01/24 01:18:19;;;;;;;21.38;10.15;;;;;;;2.14;96.75;103602.88;5017171;28;20036;-90
2023/01/24 01:20:55;;;;;;;18.33;10.48;;;;;;;2.13;96.89;103597.59;5017558;28;20057;-90
2023/01/24 01:23:24;;;;;;;19.75;10.18;;;;;;;2.15;97.19;103603.72;5017678;28;20029;-91
2023/01/24 01:25:52;;;;;;;19.35;10.43;;;;;;;2.14;97.48;103599.31;5047880;28;20033;-91
2023/01/24 01:28:20;;;;;;;20.23;10.17;;;;;;;2.10;96.81;103596.84;5051634;28;20059;-91
2023/01/24 01:30:57;;;;;;;18.77;9.95;;;;;;;2.11;97.14;103603.03;5021312;28;20093;-91
2023/01/24 01:33:25;;;;;;;17.30;9.50;;;;;;;2.10;97.26;103598.66;5019115;28;20030;-91
2023/01/24 01:35:55;;;;;;;18.95;9.43;;;;;;;2.14;97.07;103605.56;5017949;28;20033;-91
2023/01/24 01:38:24;;;;;;;17.50;9.57;;;;;;;2.15;97.12;103609.09;5000885;28;20078;-91
2023/01/24 01:41:07;;;;;;;17.70;10.00;;;;;;;2.16;96.69;103602.78;5000839;28;20030;-91
2023/01/24 01:44:37;;;;;;;17.65;9.57;;;;;;;2.16;96.72;103611.69;5002168;28;20026;-91
2023/01/24 01:50:01;;;;;;;18.33;9.63;;;;;;;2.16;96.90;103606.31;5034158;28;20032;-91
2023/01/24 01:52:37;;;;;;;16.52;8.55;;;;;;;2.18;97.43;103607.06;5016809;28;20060;-91
2023/01/24 01:55:23;;;;;;;17.90;9.37;;;;;;;2.17;97.37;103608.06;5016470;28;20018;-91
2023/01/24 01:57:54;;;;;;;19.50;9.32;;;;;;;2.17;97.26;103607.16;5016769;28;20030;-91
2023/01/24 02:00:23;;;;;;;17.40;9.45;;;;;;;2.17;96.71;103609.84;5016946;28;20041;-91
2023/01/24 02:03:37;;;;;;;19.10;10.23;;;;;;;2.14;96.86;103593.97;5016514;28;20124;-90
2023/01/24 02:09:27;;;;;;;17.97;9.80;;;;;;;2.20;96.87;103598.94;4992420;28;20485;-91
2023/01/24 02:35:01;;;;;;;21.35;10.32;;;;;;;2.17;97.96;103600.00;4878167;29;20081;-91
2023/01/24 02:41:24;;;;;;;19.40;9.80;;;;;;;2.16;97.81;103584.03;4935021;29;20046;-91
2023/01/24 02:43:52;;;;;;;20.60;11.25;;;;;;;2.14;97.90;103597.53;4946703;28;20543;-91
2023/01/24 02:46:20;;;;;;;22.30;12.02;;;;;;;2.15;97.67;103593.03;4996218;28;20032;-91
2023/01/24 02:48:52;;;;;;;21.40;10.60;;;;;;;2.17;97.81;103593.78;4980265;28;20040;-91
2023/01/24 02:54:04;;;;;;;20.13;11.33;;;;;;;2.11;98.14;103592.31;5014706;28;20128;-90
2023/01/24 03:02:44;;;;;;;22.98;11.90;;;;;;;2.08;98.07;103596.06;5021945;28;20044;-91
2023/01/24 03:08:55;;;;;;;22.30;11.83;;;;;;;2.14;98.85;103594.84;5041894;28;20084;-90
2023/01/24 03:34:48;;;;;;;20.30;10.93;;;;;;;2.09;98.88;103586.22;5036852;28;20048;-92
2023/01/24 03:40:44;;;;;;;20.17;10.20;;;;;;;2.09;98.54;103583.53;4994676;28;20036;-91
2023/01/24 03:46:39;;;;;;;22.58;10.93;;;;;;;2.04;98.10;103575.78;5036698;28;20041;-91
2023/01/24 03:49:16;;;;;;;24.55;11.90;;;;;;;2.02;98.08;103580.38;5003505;28;20029;-91
2023/01/24 03:54:28;;;;;;;18.02;10.55;;;;;;;2.01;98.65;103578.63;5036387;28;20492;-90
2023/01/24 03:57:03;;;;;;;23.77;11.82;;;;;;;2.02;98.32;103587.53;5018501;28;20083;-90
2023/01/24 03:59:29;;;;;;;23.23;11.38;;;;;;;1.97;98.54;103582.44;5020570;28;20470;-91
2023/01/24 04:01:55;;;;;;;21.13;11.27;;;;;;;1.96;98.70;103575.34;5018241;28;20060;-91
2023/01/24 04:04:23;;;;;;;23.37;12.13;;;;;;;1.97;98.51;103578.91;5018740;28;20037;-90
2023/01/24 04:06:48;;;;;;;20.63;11.43;;;;;;;1.90;98.95;103579.25;5035862;28;20057;-90
2023/01/24 04:09:19;;;;;;;22.63;11.88;;;;;;;1.91;98.96;103583.66;5017623;28;20077;-91
2023/01/24 04:11:44;;;;;;;23.08;11.57;;;;;;;1.90;99.17;103581.94;5036041;28;20116;-91
2023/01/24 04:14:18;;;;;;;22.92;11.35;;;;;;;1.91;99.02;103582.81;5035964;28;20116;-90
2023/01/24 04:16:46;;;;;;;22.03;11.27;;;;;;;1.93;98.89;103591.63;5019301;28;20088;-90
2023/01/24 04:19:16;;;;;;;21.77;10.93;;;;;;;1.89;98.88;103582.91;5035744;28;20026;-90
2023/01/24 04:25:12;;;;;;;21.73;11.25;;;;;;;1.86;99.36;103584.91;5035839;28;20039;-91
2023/01/24 04:27:47;;;;;;;23.15;11.80;;;;;;;1.85;99.54;103588.53;5018022;28;20032;-90
2023/01/24 04:30:37;;;;;;;22.00;10.93;;;;;;;1.87;99.52;103579.44;4936832;29;20084;-90
2023/01/24 04:36:33;;;;;;;20.58;11.40;;;;;;;1.87;99.36;103584.81;4936593;29;20094;-90
2023/01/24 04:38:58;;;;;;;21.65;11.23;;;;;;;1.82;99.42;103589.59;4935883;29;20054;-90
2023/01/24 04:41:24;;;;;;;19.60;10.50;;;;;;;1.85;99.75;103594.75;4968522;28;20037;-90
2023/01/24 04:43:51;;;;;;;21.83;11.27;;;;;;;1.83;99.18;103588.63;5017312;28;20034;-90
2023/01/24 04:46:19;;;;;;;23.10;11.43;;;;;;;1.85;99.23;103589.41;5035163;28;20033;-90
2023/01/24 04:49:22;;;;;;;20.20;10.65;;;;;;;1.85;99.65;103588.53;5034806;28;20116;-90
2023/01/24 04:55:51;;;;;;;21.00;10.52;;;;;;;1.87;99.70;103595.50;5035016;28;20041;-90
2023/01/24 05:01:46;;;;;;;21.13;10.80;;;;;;;1.83;99.55;103593.09;5035281;28;20041;-91
2023/01/24 05:07:42;;;;;;;20.10;10.80;;;;;;;1.78;99.55;103600.56;5034717;28;20068;-91
2023/01/24 05:14:23;;;;;;;19.85;10.15;;;;;;;1.78;99.98;103598.75;5034741;28;20068;-91
2023/01/24 05:21:15;;;;;;;20.48;10.40;;;;;;;1.83;100.00;103609.16;4994220;28;20085;-91
2023/01/24 05:27:11;;;;;;;21.75;11.00;;;;;;;1.78;100.00;103604.09;4995231;28;20097;-91
2023/01/24 05:33:03;;;;;;;20.92;11.27;;;;;;;1.77;100.00;103613.06;4994177;28;20085;-91
2023/01/24 05:39:37;;;;;;;;;;;;;;;;;;;;;
2023/01/24 05:45:38;;;;;;;22.20;11.05;;;;;;;1.76;99.82;103614.03;4954880;28;20078;-91
2023/01/24 05:51:35;;;;;;;22.90;11.88;;;;;;;1.75;100.00;103618.50;5013730;28;20552;-91
2023/01/24 05:57:43;;;;;;;20.55;10.70;;;;;;;1.73;100.00;103620.44;5034322;28;20484;-90
2023/01/24 06:00:19;;;;;;;20.38;10.75;;;;;;;1.71;99.83;103629.50;5002022;28;20045;-91
2023/01/24 06:09:49;;;;;;;18.02;9.68;;;;;;;1.69;100.00;103634.94;5034085;28;20037;-91
2023/01/24 06:19:58;;;;;;;18.65;9.65;;;;;;;1.73;100.00;103646.34;4976737;29;20082;-90
2023/01/24 06:26:12;;;;;;;18.08;9.25;;;;;;;1.70;100.00;103642.03;4957036;29;20090;-91
2023/01/24 06:38:42;;;;;;;19.98;10.82;;;;;;;1.72;100.00;103653.50;4943493;28;20042;-87
2023/01/24 06:41:17;;;;;;;19.70;10.20;;;;;;;1.71;100.00;103657.13;4956431;28;20042;-89
2023/01/24 06:43:44;;;;;;;18.13;10.20;;;;;;;1.70;100.00;103665.25;4975296;28;20039;-89
2023/01/24 06:46:12;;;;;;;20.15;10.70;;;;;;;1.66;100.00;103653.84;4977728;28;20034;-88
2023/01/24 06:48:38;;;;;;;19.15;10.20;;;;;;;1.66;100.00;103659.19;4960030;28;20039;-88
2023/01/24 06:51:14;;;;;;;21.17;10.13;;;;;;;1.70;100.00;103666.13;4975480;28;20439;-90
2023/01/24 06:53:40;;;;;;;20.90;10.70;;;;;;;1.66;100.00;103655.69;4956118;28;20535;-88
2023/01/24 06:56:07;;;;;;;20.07;10.23;;;;;;;1.64;100.00;103663.78;4972997;28;20123;-87
2023/01/24 06:58:32;;;;;;;22.45;11.18;;;;;;;1.62;100.00;103670.19;4978437;28;20043;-88
2023/01/24 07:00:58;;;;;;;19.57;10.83;;;;;;;1.56;100.00;103658.84;4976253;28;20109;-88
2023/01/24 07:03:31;;;;;;;21.35;10.85;;;;;;;1.61;100.00;103663.97;4959439;28;20515;-88
2023/01/24 07:06:05;;;;;;;22.33;11.13;;;;;;;1.60;100.00;103661.38;4990176;28;20052;-88
2023/01/24 07:08:31;;;;;;;21.45;11.40;;;;;;;1.59;100.00;103657.81;5036956;28;20096;-88
2023/01/24 07:10:58;;;;;;;20.02;11.20;;;;;;;1.62;100.00;103665.66;5036416;28;20041;-89
2023/01/24 07:13:24;;;;;;;21.23;11.57;;;;;;;1.61;100.00;103669.31;5018634;28;20040;-88
2023/01/24 07:15:52;;;;;;;20.75;11.43;;;;;;;1.63;100.00;103677.25;5018748;28;20049;-88
2023/01/24 07:18:21;;;;;;;21.08;11.10;;;;;;;1.60;100.00;103680.13;5002513;28;20030;-87
2023/01/24 07:20:50;;;;;;;20.80;11.35;;;;;;;1.62;100.00;103684.41;5018687;28;20482;-88
2023/01/24 07:23:27;;;;;;;20.50;11.20;;;;;;;1.58;100.00;103691.75;5018849;28;20076;-88
2023/01/24 07:26:03;;;;;;;21.85;11.38;;;;;;;1.58;100.00;103698.94;5019465;28;20412;-87
2023/01/24 07:28:31;;;;;;;19.85;10.95;;;;;;;1.52;100.00;103694.78;5002381;28;20086;-88
2023/01/24 07:38:38;;;;;;;19.13;9.95;;;;;;;1.50;100.00;103703.84;5039028;28;20052;-88
2023/01/24 07:51:00;;;;;;;20.50;10.70;;;;;;;1.54;100.00;103710.75;4878708;29;20118;-88
2023/01/24 07:53:36;;;;;;;19.08;10.32;;;;;;;1.50;100.00;103715.41;4957573;29;20027;-87
2023/01/24 07:56:17;;;;;;;;;;;;;;;;;;;;;
2023/01/24 07:59:02;;;;;;;20.90;11.35;;;;;;;1.46;100.00;103719.22;5031865;28;20125;-88
2023/01/24 08:01:49;;;;;;;22.05;10.18;;;;;;;1.48;100.00;103733.38;5022167;28;20034;-88
2023/01/24 08:04:24;;;;;;;19.45;10.25;;;;;;;1.43;100.00;103726.53;5018173;28;20037;-88
2023/01/24 08:10:56;;;;;;;23.13;11.45;;;;;;;1.44;100.00;103722.91;4975340;28;20041;-87
2023/01/24 08:13:50;;;;;;;18.83;10.23;;;;;;;1.51;100.00;103725.16;5018324;28;20469;-87
2023/01/24 08:16:35;;;;;;;21.73;11.32;;;;;;;1.52;100.00;103715.31;5004074;28;20054;-88
2023/01/24 08:19:06;;;;;;;20.58;10.55;;;;;;;1.53;100.00;103723.25;5018010;28;20144;-87
2023/01/24 08:21:37;;;;;;;21.00;10.38;;;;;;;1.56;100.00;103725.75;5018847;28;20092;-88
2023/01/24 08:24:49;;;;;;;;;;;;;;;;;;;;;
2023/01/24 08:27:21;;;;;;;21.63;11.07;;;;;;;1.60;100.00;103726.47;5018949;28;20033;-88
2023/01/24 08:30:21;;;;;;;22.30;11.45;;;;;;;1.64;100.00;103724.47;5001622;28;20049;-87
2023/01/24 08:33:14;;;;;;;;;;;;;;;;;;;;;
2023/01/24 08:35:45;;;;;;;22.25;11.43;;;;;;;1.64;100.00;103730.72;5035970;28;20025;-87
2023/01/24 08:38:39;;;;;;;23.15;11.93;;;;;;;1.60;100.00;103722.94;5016783;28;20045;-87
2023/01/24 08:41:15;;;;;;;22.00;11.07;;;;;;;1.62;100.00;103737.09;5001492;28;20074;-87
2023/01/24 08:43:45;;;;;;;22.23;11.82;;;;;;;1.62;100.00;103737.09;5017463;28;20033;-87
2023/01/24 08:46:34;;;;;;;22.25;11.55;;;;;;;1.63;100.00;103744.19;5016954;28;20038;-87
2023/01/24 08:49:05;;;;;;;24.30;10.82;;;;;;;1.64;99.82;103745.88;5017205;28;20026;-87
2023/01/24 08:51:45;;;;;;;23.92;11.88;;;;;;;1.66;99.68;103750.22;5017736;28;20025;-87
2023/01/24 08:54:40;;;;;;;24.00;11.27;;;;;;;1.67;99.62;103751.94;5002311;28;20042;-87
2023/01/24 08:57:22;;;;;;;;;;;;;;;;;;;;;
2023/01/24 09:03:32;;;;;;;22.42;10.88;;;;;;;1.73;98.74;103764.13;4979521;28;20040;-88
2023/01/24 09:06:24;;;;;;;23.65;11.65;;;;;;;1.71;98.29;103755.31;5001573;28;20041;-88
2023/01/24 09:11:56;;;;;;;18.63;10.32;;;;;;;1.77;98.30;103759.47;5017610;28;20489;-88
2023/01/24 09:14:22;;;;;;;23.48;10.63;;;;;;;1.80;98.02;103759.28;5002743;28;20037;-90
2023/01/24 09:16:51;;;;;;;21.30;10.40;;;;;;;1.82;97.09;103762.75;5017151;28;20156;-87
2023/01/24 09:19:29;;;;;;;;;;;;;;;;;;;;;
2023/01/24 09:22:34;;;;;;;25.08;11.15;;;;;;;1.84;98.27;103755.50;5036359;28;20018;-88
2023/01/24 09:25:23;;;;;;;23.05;11.07;;;;;;;1.86;97.31;103759.81;5001502;28;20094;-88
2023/01/24 09:28:34;;;;;;;20.73;10.65;;;;;;;1.91;97.89;103751.53;5017889;28;20408;-88
2023/01/24 09:33:54;;;;;;;20.67;10.35;;;;;;;1.91;97.18;103762.22;5011542;28;20037;-88
2023/01/24 09:36:25;;;;;;;22.47;11.07;;;;;;;2.01;97.56;103767.91;5022362;28;20036;-88
2023/01/24 09:38:57;;;;;;;23.13;11.23;;;;;;;2.04;97.57;103763.25;5005517;28;20563;-88
2023/01/24 09:41:46;;;;;;;19.38;10.52;;;;;;;2.13;97.21;103753.84;5002872;28;20036;-88
2023/01/24 09:45:06;;;;;;;;;;;;;;;;;;;;;
2023/01/24 09:48:23;;;;;;;;;;;;;;;;;;;;;
2023/01/24 09:51:04;;;;;;;;;;;;;;;;;;;;;
2023/01/24 09:53:46;;;;;;;22.42;10.95;;;;;;;2.36;96.56;103765.03;5033823;28;20032;-88
2023/01/24 09:57:09;;;;;;;20.77;10.60;;;;;;;2.52;96.85;103776.56;5016344;28;20033;-87
2023/01/24 09:59:59;;;;;;;20.60;10.30;;;;;;;2.54;95.59;103765.75;4972779;28;20043;-88
2023/01/24 10:03:05;;;;;;;19.75;9.50;;;;;;;2.62;94.93;103768.84;5004233;28;20045;-88
2023/01/24 10:05:41;;;;;;;20.37;9.57;;;;;;;2.61;94.95;103772.47;5000952;28;20508;-89
2023/01/24 10:15:37;;;;;;;19.13;9.63;;;;;;;2.83;93.86;103788.16;5005699;28;20044;-88
2023/01/24 10:18:30;;;;;;;16.23;9.27;;;;;;;2.84;92.44;103781.00;4997616;28;20087;-87
2023/01/24 10:21:20;;;;;;;16.80;9.17;;;;;;;2.90;92.80;103784.16;4995570;28;20069;-87
2023/01/24 10:24:03;;;;;;;16.85;9.13;;;;;;;2.90;92.46;103775.25;4996444;28;20124;-87
2023/01/24 10:26:38;;;;;;;16.58;9.05;;;;;;;2.88;91.85;103780.72;4996078;28;20065;-87
2023/01/24 10:29:30;;;;;;;16.17;8.70;;;;;;;2.87;91.83;103786.16;4996705;28;20034;-87
2023/01/24 10:31:55;;;;;;;17.98;9.25;;;;;;;2.84;91.56;103786.34;4998918;28;20457;-89
2023/01/24 10:34:47;;;;;;;17.83;9.30;;;;;;;2.89;92.19;103786.91;4999529;28;20061;-89
2023/01/24 10:37:58;;;;;;;;;;;;;;;;;;;;;
2023/01/24 10:54:22;;;;;;;;;;;;;;;;;;;;;
2023/01/24 10:57:24;;;;;;;16.17;8.30;;;;;;;2.96;90.25;103770.34;4896017;29;20048;-88
2023/01/24 11:00:40;;;;;;;;;;;;;;;;;;;;;
2023/01/24 11:07:03;;;;;;;;;;;;;;;;;;;;;
2023/01/24 11:09:39;;;;;;;16.40;8.10;;;;;;;3.15;89.88;103764.72;4941897;29;20039;-88
2023/01/24 11:12:13;;;;;;;22.30;8.55;;;;;;;3.20;89.60;103760.91;4978029;28;20394;-88
2023/01/24 11:14:48;;;;;;;15.75;8.70;;;;;;;3.21;89.14;103758.13;4999376;28;20037;-89
2023/01/24 11:17:41;;;;;;;16.88;9.32;;;;;;;3.31;89.00;103758.44;5014821;28;20096;-88
2023/01/24 11:20:34;;;;;;;14.25;8.27;;;;;;;3.26;87.96;103747.09;5019381;28;20072;-87
2023/01/24 11:23:26;;;;;;;13.68;7.55;;;;;;;3.25;88.23;103756.97;5010417;28;20490;-87
2023/01/24 11:26:01;;;;;;;15.15;7.80;;;;;;;3.26;88.17;103747.97;5018051;28;20037;-88
2023/01/24 11:28:42;;;;;;;13.27;7.55;;;;;;;3.31;87.64;103748.53;5018320;28;20490;-91
2023/01/24 11:31:29;;;;;;;13.38;8.00;;;;;;;3.26;86.90;103747.09;5017978;28;20094;-89
2023/01/24 11:34:48;;;;;;;14.48;8.65;;;;;;;3.27;87.78;103738.09;5019116;28;20405;-88
2023/01/24 11:37:28;;;;;;;17.38;8.77;;;;;;;3.32;86.67;103730.59;4940106;29;20549;-88
2023/01/24 11:40:29;;;;;;;12.60;7.40;;;;;;;3.34;86.64;103739.44;5036307;28;20108;-89
2023/01/24 11:43:37;;;;;;;16.42;9.43;;;;;;;3.36;86.54;103745.56;5022136;28;20124;-89
2023/01/24 11:46:18;;;;;;;14.60;8.05;;;;;;;3.33;86.51;103726.97;5018332;28;20088;-88
2023/01/24 11:49:27;;;;;;;16.23;8.05;;;;;;;3.37;86.70;103739.25;5036389;28;20032;-88
2023/01/24 11:52:04;;;;;;;17.52;8.35;;;;;;;3.27;86.02;103735.41;5018651;28;20029;-88
2023/01/24 11:54:51;;;;;;;16.85;8.00;;;;;;;3.21;86.48;103728.59;5018654;28;20037;-88
2023/01/24 11:57:42;;;;;;;14.75;8.10;;;;;;;3.16;86.53;103723.53;5018693;28;20025;-89
2023/01/24 12:00:34;;;;;;;15.70;8.00;;;;;;;3.22;87.08;103718.72;5035043;28;20044;-89
2023/01/24 12:03:54;;;;;;;14.40;7.68;;;;;;;3.28;87.05;103723.72;5018460;28;20462;-89
2023/01/24 12:06:55;;;;;;;13.10;7.25;;;;;;;3.26;86.28;103720.25;4979170;28;20053;-89
2023/01/24 12:09:41;;;;;;;14.45;7.80;;;;;;;3.32;86.28;103709.13;5034987;28;20043;-89
2023/01/24 12:12:09;;;;;;;15.90;8.40;;;;;;;3.30;85.72;103714.59;5018337;28;20039;-89
2023/01/24 12:14:48;;;;;;;14.05;7.82;;;;;;;3.34;85.74;103710.78;5017976;28;20099;-89
2023/01/24 12:17:26;;;;;;;17.13;8.52;;;;;;;3.37;85.48;103711.56;5018324;28;20084;-89
2023/01/24 12:20:17;;;;;;;18.98;8.45;;;;;;;3.37;86.17;103695.44;5018260;28;20048;-89
2023/01/24 12:22:53;;;;;;;15.82;8.65;;;;;;;3.31;85.49;103694.00;5019023;28;20057;-88
2023/01/24 12:25:40;;;;;;;15.75;8.10;;;;;;;3.34;86.11;103685.75;5002735;28;20040;-89
2023/01/24 12:28:24;;;;;;;;;;;;;;;;;;;;;
2023/01/24 12:30:53;;;;;;;16.77;8.35;;;;;;;3.30;84.98;103685.09;5036440;28;20377;-88
2023/01/24 12:33:37;;;;;;;15.30;8.55;;;;;;;3.36;84.97;103685.66;5018369;28;20444;-89
2023/01/24 12:36:18;;;;;;;16.77;8.82;;;;;;;3.43;85.18;103676.25;5035916;28;20029;-88
2023/01/24 12:38:53;;;;;;;16.88;8.55;;;;;;;3.50;85.04;103673.06;5018600;28;20029;-88
2023/01/24 12:41:34;;;;;;;16.27;9.40;;;;;;;3.59;85.20;103679.69;5018685;28;20033;-88
2023/01/24 12:44:05;;;;;;;15.23;8.50;;;;;;;3.65;84.09;103678.41;5036224;28;20032;-89
2023/01/24 12:46:40;;;;;;;13.15;7.10;;;;;;;3.60;83.83;103670.66;5018943;28;20461;-87
2023/01/24 12:49:31;;;;;;;14.93;7.88;;;;;;;3.53;83.23;103677.41;5030083;28;20026;-89
2023/01/24 12:52:14;;;;;;;15.82;8.40;;;;;;;3.47;84.03;103667.91;5051656;28;20029;-89
2023/01/24 12:54:51;;;;;;;13.95;7.40;;;;;;;3.41;83.96;103667.44;5031128;28;20029;-88
2023/01/24 12:57:31;;;;;;;14.15;6.90;;;;;;;3.44;84.88;103667.22;5020185;28;20120;-88
2023/01/24 12:59:57;;;;;;;13.70;7.32;;;;;;;3.42;83.79;103663.78;5017825;28;20029;-88
2023/01/24 13:03:17;;;;;;;14.10;8.30;;;;;;;3.48;85.57;103666.97;5017432;28;20492;-88
2023/01/24 13:06:19;;;;;;;14.30;7.38;;;;;;;3.50;84.70;103661.50;4954956;29;20496;-89
2023/01/24 13:09:17;;;;;;;15.85;7.75;;;;;;;3.56;84.07;103660.19;4954424;29;20037;-88
2023/01/24 13:11:55;;;;;;;13.15;7.05;;;;;;;3.47;83.76;103650.91;4996358;28;20037;-88
2023/01/24 13:14:36;;;;;;;13.52;7.30;;;;;;;3.49;83.92;103654.38;5017067;28;20533;-88
2023/01/24 13:17:20;;;;;;;14.63;7.50;;;;;;;3.54;83.64;103654.09;5016693;28;20049;-88
2023/01/24 13:20:13;;;;;;;14.95;8.15;;;;;;;3.53;84.03;103655.91;5016955;28;20030;-88
2023/01/24 13:22:49;;;;;;;15.48;8.98;;;;;;;3.48;84.56;103661.59;5016699;28;20129;-88
2023/01/24 13:25:23;;;;;;;15.77;8.07;;;;;;;3.45;84.18;103653.72;5016350;28;20025;-89
2023/01/24 13:28:22;;;;;;;16.65;7.97;;;;;;;3.51;84.48;103657.81;5016513;28;20037;-88
2023/01/24 13:31:36;;;;;;;;;;;;;;;;;;;;;
2023/01/24 13:34:39;;;;;;;12.23;6.82;;;;;;;3.41;84.33;103649.53;4955084;29;20065;-88
2023/01/24 13:37:28;;;;;;;14.27;7.70;;;;;;;3.44;83.77;103649.31;5016787;28;20033;-89
2023/01/24 13:40:26;;;;;;;14.82;7.55;;;;;;;3.50;84.25;103658.81;5017100;28;20029;-88
2023/01/24 13:43:04;;;;;;;15.35;7.07;;;;;;;3.42;83.63;103647.69;5019643;28;20462;-88
2023/01/24 13:45:30;;;;;;;14.10;7.80;;;;;;;3.42;83.84;103655.75;5021396;28;20036;-89
2023/01/24 13:48:04;;;;;;;13.48;7.70;;;;;;;3.32;83.45;103652.78;5040892;28;20120;-89
2023/01/24 13:50:34;;;;;;;14.50;7.70;;;;;;;3.27;83.62;103657.59;5022153;28;20044;-88
2023/01/24 13:53:05;;;;;;;13.70;7.53;;;;;;;3.23;83.23;103653.38;5023563;28;20041;-88
2023/01/24 13:55:39;;;;;;;14.55;7.95;;;;;;;3.21;83.60;103656.16;5038325;28;20029;-88
2023/01/24 13:58:40;;;;;;;;;;;;;;;;;;;;;
2023/01/24 14:01:15;;;;;;;17.25;7.85;;;;;;;3.13;84.09;103647.72;5034320;28;20044;-88
2023/01/24 14:03:54;;;;;;;12.88;7.63;;;;;;;3.18;84.78;103652.81;5016421;28;20497;-88
2023/01/24 14:06:26;;;;;;;12.07;6.85;;;;;;;3.14;84.38;103647.66;5017752;28;20094;-88
2023/01/24 14:09:11;;;;;;;13.63;7.07;;;;;;;3.13;84.54;103651.28;5000246;28;20044;-88
2023/01/24 14:11:57;;;;;;;13.75;7.80;;;;;;;3.13;84.76;103648.59;5016273;28;20069;-90
2023/01/24 14:14:31;;;;;;;14.82;8.23;;;;;;;3.15;85.07;103654.72;5034717;28;20030;-90
2023/01/24 14:17:01;;;;;;;14.48;8.40;;;;;;;3.15;84.49;103652.03;4999137;28;20111;-88
2023/01/24 14:19:45;;;;;;;14.75;7.88;;;;;;;3.16;85.10;103652.94;5016692;28;20034;-88
2023/01/24 14:22:15;;;;;;;12.88;7.57;;;;;;;3.17;84.76;103651.94;5033829;28;20033;-88
2023/01/24 14:25:05;;;;;;;12.85;7.63;;;;;;;3.12;84.84;103660.28;5035166;28;20108;-89
2023/01/24 14:27:40;;;;;;;14.15;7.55;;;;;;;3.10;84.83;103653.28;5037359;28;20595;-88
2023/01/24 14:30:09;;;;;;;15.30;7.65;;;;;;;3.09;84.44;103654.25;5017060;28;20083;-88
2023/01/24 14:32:46;;;;;;;13.55;7.38;;;;;;;3.06;84.96;103649.94;5016342;28;20037;-87
2023/01/24 14:35:30;;;;;;;12.25;7.43;;;;;;;3.08;85.09;103661.44;5033445;28;20029;-88
2023/01/24 14:38:13;;;;;;;14.32;7.63;;;;;;;3.03;85.49;103655.50;5015752;28;20068;-88
2023/01/24 14:40:49;;;;;;;14.60;7.75;;;;;;;2.95;85.60;103656.00;5016846;28;20025;-87
2023/01/24 14:43:20;;;;;;;13.27;7.47;;;;;;;2.90;85.01;103658.09;5033532;28;20029;-88
2023/01/24 14:45:49;;;;;;;13.65;6.82;;;;;;;2.86;84.75;103661.06;5015989;28;20037;-87
2023/01/24 14:48:27;;;;;;;14.10;8.07;;;;;;;2.82;85.23;103663.09;5015573;28;20029;-88
2023/01/24 14:51:06;;;;;;;12.85;7.57;;;;;;;2.78;85.61;103658.88;5015757;28;20033;-88
2023/01/24 14:53:40;;;;;;;13.43;7.00;;;;;;;2.70;85.13;103653.97;5033400;28;20040;-88
2023/01/24 14:56:12;;;;;;;12.95;7.32;;;;;;;2.68;85.76;103657.72;5016032;28;20045;-87
2023/01/24 14:58:41;;;;;;;14.35;7.88;;;;;;;2.61;86.34;103651.84;5033005;28;20171;-88
2023/01/24 15:01:32;;;;;;;13.88;7.88;;;;;;;2.59;86.21;103653.78;5015674;28;20091;-89
2023/01/24 15:04:14;;;;;;;;;;;;;;;;;;;;;
2023/01/24 15:06:42;;;;;;;14.98;8.15;;;;;;;2.60;86.71;103656.34;5033375;28;20034;-89
2023/01/24 15:09:20;;;;;;;14.43;7.95;;;;;;;2.56;87.30;103664.69;4998916;28;20033;-90
2023/01/24 15:11:56;;;;;;;15.43;8.65;;;;;;;2.53;87.10;103656.84;5015693;28;20037;-90
2023/01/24 15:14:37;;;;;;;16.13;8.05;;;;;;;2.54;87.90;103655.84;5015812;28;20029;-90
2023/01/24 15:17:19;;;;;;;18.08;8.35;;;;;;;2.55;87.41;103661.13;5000828;28;20061;-89
2023/01/24 15:19:48;;;;;;;15.88;7.85;;;;;;;2.48;87.16;103648.19;5037618;28;20152;-90
2023/01/24 15:22:26;;;;;;;14.68;7.40;;;;;;;2.48;87.60;103651.75;5037549;28;20026;-89
2023/01/24 15:25:22;;;;;;;15.52;8.00;;;;;;;2.48;87.50;103656.22;5019356;28;20114;-89
2023/01/24 15:27:48;;;;;;;14.75;8.18;;;;;;;2.41;87.95;103659.28;5014959;28;20076;-86
2023/01/24 15:30:30;;;;;;;15.45;8.68;;;;;;;2.40;88.33;103649.50;5018737;28;20094;-87
2023/01/24 15:33:03;;;;;;;15.98;7.40;;;;;;;2.32;88.10;103648.25;5018922;28;20033;-87
2023/01/24 15:35:38;;;;;;;12.95;7.68;;;;;;;2.25;87.86;103659.34;5019340;28;20033;-88
2023/01/24 15:38:33;;;;;;;14.20;7.80;;;;;;;2.19;88.99;103648.16;5037162;28;20025;-86
2023/01/24 15:41:18;;;;;;;15.10;7.93;;;;;;;2.21;89.11;103664.97;5037323;28;20040;-87
2023/01/24 15:44:14;;;;;;;13.45;7.82;;;;;;;2.18;89.12;103667.84;5036271;28;20108;-87
2023/01/24 15:49:35;;;;;;;15.20;7.65;;;;;;;2.05;89.00;103665.91;5021696;28;20091;-87
2023/01/24 15:52:08;;;;;;;15.98;8.05;;;;;;;2.01;89.58;103661.66;5018474;28;20384;-87
2023/01/24 15:54:36;;;;;;;16.98;8.70;;;;;;;2.01;89.62;103663.47;5018275;28;20124;-87
2023/01/24 15:57:08;;;;;;;14.70;7.85;;;;;;;2.00;89.69;103664.44;5018085;28;20060;-86
2023/01/24 15:59:48;;;;;;;15.43;8.38;;;;;;;1.96;89.59;103655.69;5020426;28;20040;-87
2023/01/24 16:02:24;;;;;;;16.40;8.30;;;;;;;1.95;89.63;103664.72;5019606;28;20034;-87
2023/01/24 16:04:50;;;;;;;16.70;8.38;;;;;;;1.90;89.64;103664.94;5000333;28;20048;-87
2023/01/24 16:07:18;;;;;;;14.13;7.93;;;;;;;1.90;90.75;103656.06;5018100;28;20096;-88
2023/01/24 16:09:53;;;;;;;14.45;8.50;;;;;;;1.90;89.98;103658.75;5036310;28;20029;-87
2023/01/24 16:12:21;;;;;;;14.38;8.07;;;;;;;1.88;90.39;103656.16;5036151;28;20034;-88
2023/01/24 16:14:52;;;;;;;15.43;8.02;;;;;;;1.87;90.57;103657.09;5035841;28;20025;-87
2023/01/24 16:17:23;;;;;;;16.00;8.43;;;;;;;1.86;90.77;103662.53;5017086;28;20041;-87
2023/01/24 16:20:00;;;;;;;14.43;7.40;;;;;;;1.83;91.32;103660.94;5034491;28;20033;-87
2023/01/24 16:22:28;;;;;;;15.90;8.38;;;;;;;1.84;91.47;103665.31;5035237;28;20057;-87
2023/01/24 16:24:59;;;;;;;15.98;9.18;;;;;;;1.86;91.58;103668.78;5017825;28;20397;-87
2023/01/24 16:27:30;;;;;;;16.17;8.40;;;;;;;1.80;91.71;103679.84;5017496;28;20075;-88
2023/01/24 16:30:04;;;;;;;16.92;9.02;;;;;;;1.82;91.80;103677.09;5018504;28;20030;-87
2023/01/24 16:32:34;;;;;;;15.15;8.50;;;;;;;1.82;92.01;103682.44;5035821;28;20108;-88
2023/01/24 16:35:02;;;;;;;17.70;9.57;;;;;;;1.80;91.71;103663.78;5018414;28;20037;-87
2023/01/24 16:37:32;;;;;;;13.85;8.40;;;;;;;1.82;91.91;103674.41;5034904;28;20029;-88
2023/01/24 16:39:58;;;;;;;18.00;8.65;;;;;;;1.79;92.17;103678.13;5018619;28;20083;-88
2023/01/24 16:42:47;;;;;;;16.20;8.97;;;;;;;1.83;91.29;103678.78;5033408;28;20045;-88
2023/01/24 16:45:19;;;;;;;19.55;8.45;;;;;;;1.77;92.10;103681.81;5035001;28;20043;-87
2023/01/24 16:47:51;;;;;;;16.90;8.63;;;;;;;1.73;92.06;103679.31;5018021;28;20029;-88